Time;durP1;ratioP1;P1;durP2;ratioP2;P2;SDS_P1;SDS_P2;PMS_P1;PMS_P2;Temp;Humidity;BMP_temperature;BMP_pressure;BME280_temperature;BME280_humidity;BME280_pressure;Samples;Min_cycle;Max_cycle;Signal;HPM_P1;HPM_P2
2021/05/12 00:00:11;;;;;;;33.60;29.33;;;16.70;94.70;;;;;;2057567;28;20054;-71
2021/05/12 00:01:11;;;;;;;34.55;29.38;;;16.70;94.60;;;;;;2057600;28;20023;-71
2021/05/12 00:02:12;;;;;;;34.17;28.58;;;16.60;94.60;;;;;;2057540;28;20034;-71
2021/05/12 00:03:13;;;;;;;33.30;29.65;;;16.70;94.70;;;;;;2057431;28;20516;-71
2021/05/12 00:04:13;;;;;;;35.83;31.02;;;16.60;94.60;;;;;;2056616;28;20037;-71
2021/05/12 00:05:15;;;;;;;35.65;30.75;;;16.60;94.30;;;;;;2057661;28;20090;-71
2021/05/12 00:06:16;;;;;;;36.45;30.65;;;16.60;94.30;;;;;;2057375;28;20033;-70
2021/05/12 00:07:16;;;;;;;35.03;30.23;;;16.50;94.20;;;;;;2057515;28;20031;-71
2021/05/12 00:08:17;;;;;;;35.15;29.95;;;16.50;94.40;;;;;;2057548;28;20037;-71
2021/05/12 00:09:17;;;;;;;36.60;30.33;;;16.50;94.40;;;;;;2057638;28;20552;-72
2021/05/12 00:10:20;;;;;;;33.58;28.50;;;16.50;94.40;;;;;;2057515;28;20505;-70
2021/05/12 00:11:21;;;;;;;37.42;30.98;;;16.50;94.40;;;;;;2057557;28;20914;-71
2021/05/12 00:12:21;;;;;;;34.28;30.15;;;16.50;94.30;;;;;;2057394;28;20045;-71
2021/05/12 00:13:23;;;;;;;35.67;30.17;;;16.40;94.60;;;;;;2057659;28;20449;-70
2021/05/12 00:14:24;;;;;;;34.22;29.55;;;16.40;94.40;;;;;;2056490;28;20022;-72
2021/05/12 00:15:25;;;;;;;35.78;29.73;;;16.40;94.60;;;;;;2057215;28;20039;-72
2021/05/12 00:16:26;;;;;;;31.60;28.13;;;16.30;94.60;;;;;;2057322;28;20596;-71
2021/05/12 00:17:28;;;;;;;35.97;29.13;;;16.30;94.70;;;;;;2056818;28;20023;-70
2021/05/12 00:18:34;;;;;;;32.10;27.15;;;16.30;94.80;;;;;;2056675;28;20039;-70
2021/05/12 00:19:37;;;;;;;34.03;28.10;;;16.30;94.60;;;;;;2057381;28;20027;-70
2021/05/12 00:20:39;;;;;;;30.77;27.25;;;16.30;95.00;;;;;;2057206;28;20117;-70
2021/05/12 00:21:45;;;;;;;30.83;26.17;;;16.30;95.10;;;;;;2057275;28;20074;-71
2021/05/12 00:24:02;;;;;;;29.73;24.75;;;16.30;94.90;;;;;;2057388;28;20043;-72
2021/05/12 00:25:08;;;;;;;28.65;23.55;;;16.30;94.90;;;;;;2056706;28;20073;-71
2021/05/12 00:26:09;;;;;;;25.52;22.73;;;16.40;95.00;;;;;;2056775;28;20070;-71
2021/05/12 00:27:10;;;;;;;25.08;22.23;;;16.40;94.80;;;;;;2056824;28;20039;-71
2021/05/12 00:28:10;;;;;;;24.08;20.73;;;16.30;94.50;;;;;;2057388;28;20068;-71
2021/05/12 00:29:14;;;;;;;27.30;23.13;;;16.30;94.80;;;;;;2057276;28;20147;-71
2021/05/12 00:30:20;;;;;;;25.92;23.10;;;16.30;94.90;;;;;;2057285;28;20035;-72
2021/05/12 00:31:20;;;;;;;24.17;21.52;;;16.30;94.90;;;;;;2057281;28;20058;-73
2021/05/12 00:32:21;;;;;;;26.08;21.98;;;16.30;94.90;;;;;;2057243;28;20026;-72
2021/05/12 00:33:21;;;;;;;24.00;21.30;;;16.30;94.90;;;;;;2057253;28;20490;-72
2021/05/12 00:34:22;;;;;;;25.35;19.17;;;16.30;95.10;;;;;;2056590;28;20490;-73
2021/05/12 00:35:23;;;;;;;21.40;18.85;;;16.30;95.00;;;;;;2057174;28;20046;-72
2021/05/12 00:36:24;;;;;;;21.55;18.83;;;16.30;95.00;;;;;;2057114;28;20026;-73
2021/05/12 00:37:24;;;;;;;21.20;18.50;;;16.30;95.00;;;;;;2057319;28;20030;-72
2021/05/12 00:38:25;;;;;;;20.45;18.23;;;16.30;95.00;;;;;;2057211;28;20493;-73
2021/05/12 00:39:25;;;;;;;18.83;16.83;;;16.20;94.70;;;;;;2057280;28;20031;-72
2021/05/12 00:40:26;;;;;;;19.00;17.00;;;16.20;94.90;;;;;;2057049;28;20034;-72
2021/05/12 00:41:26;;;;;;;19.67;17.23;;;16.10;95.00;;;;;;2056740;28;20031;-73
2021/05/12 00:42:29;;;;;;;20.13;17.38;;;16.20;95.00;;;;;;2048557;29;20126;-71
2021/05/12 00:43:29;;;;;;;18.55;15.48;;;16.20;94.70;;;;;;2048602;28;20058;-72
2021/05/12 00:44:30;;;;;;;18.85;16.10;;;16.10;94.50;;;;;;2055136;28;20487;-72
2021/05/12 00:45:31;;;;;;;17.33;15.48;;;16.10;94.70;;;;;;2057124;28;20433;-73
2021/05/12 00:46:31;;;;;;;18.02;15.75;;;16.10;94.70;;;;;;2057041;28;20481;-72
2021/05/12 00:47:33;;;;;;;16.13;14.45;;;16.10;94.80;;;;;;2056379;28;20022;-71
2021/05/12 00:48:34;;;;;;;16.98;14.93;;;16.10;94.90;;;;;;2056430;28;20042;-73
2021/05/12 00:49:35;;;;;;;16.90;15.10;;;16.10;94.90;;;;;;2056492;28;20514;-72
2021/05/12 00:50:36;;;;;;;17.05;15.25;;;16.10;94.90;;;;;;2056527;28;20510;-71
2021/05/12 00:51:37;;;;;;;17.83;15.57;;;16.10;94.90;;;;;;2057076;28;20406;-73
2021/05/12 00:52:37;;;;;;;17.55;15.75;;;16.20;94.80;;;;;;2057277;28;20031;-73
2021/05/12 00:53:38;;;;;;;18.08;15.82;;;16.20;94.80;;;;;;2057417;28;20042;-72
2021/05/12 00:54:38;;;;;;;17.83;15.75;;;16.20;94.80;;;;;;2056562;28;20042;-72
2021/05/12 00:55:39;;;;;;;18.80;15.27;;;16.20;94.80;;;;;;2057499;28;20085;-73
2021/05/12 00:56:41;;;;;;;18.50;16.50;;;16.20;95.10;;;;;;2057371;28;20023;-71
2021/05/12 00:57:43;;;;;;;21.05;17.85;;;16.20;94.50;;;;;;2057447;28;20082;-73
2021/05/12 00:58:43;;;;;;;19.30;16.77;;;16.10;94.30;;;;;;2057176;28;20223;-73
2021/05/12 00:59:45;;;;;;;19.45;17.13;;;16.10;94.80;;;;;;2057420;28;20518;-73
2021/05/12 01:00:46;;;;;;;22.52;18.35;;;16.10;94.80;;;;;;2057319;28;20030;-72
2021/05/12 01:01:47;;;;;;;19.75;17.15;;;16.10;94.70;;;;;;2057151;28;20118;-73
2021/05/12 01:02:47;;;;;;;20.67;17.55;;;16.10;94.80;;;;;;2057416;28;20030;-73
2021/05/12 01:03:48;;;;;;;20.90;17.17;;;16.10;95.10;;;;;;2057395;28;20108;-73
2021/05/12 01:04:49;;;;;;;21.85;18.35;;;16.10;94.70;;;;;;2056755;28;20039;-72
2021/05/12 01:05:50;;;;;;;25.58;20.23;;;16.10;94.40;;;;;;2048648;29;20031;-73
2021/05/12 01:06:51;;;;;;;24.65;19.70;;;16.00;94.40;;;;;;2048523;29;20035;-72
2021/05/12 01:07:51;;;;;;;24.90;20.05;;;16.00;94.50;;;;;;2057399;28;20066;-73
2021/05/12 01:08:52;;;;;;;24.42;20.25;;;16.00;95.10;;;;;;2057322;28;20063;-73
2021/05/12 01:09:53;;;;;;;25.35;19.38;;;16.00;94.70;;;;;;2057351;28;20430;-73
2021/05/12 01:10:55;;;;;;;20.25;17.00;;;16.00;94.60;;;;;;2056838;28;20034;-73
2021/05/12 01:11:56;;;;;;;25.77;21.35;;;16.00;94.70;;;;;;2056600;28;20121;-73
2021/05/12 01:12:57;;;;;;;27.30;21.05;;;16.00;94.50;;;;;;2057339;28;20469;-72
2021/05/12 01:13:57;;;;;;;27.70;21.48;;;16.00;94.70;;;;;;2057044;28;20043;-73
2021/05/12 01:14:58;;;;;;;26.52;21.75;;;16.00;94.60;;;;;;2056333;28;20034;-73
2021/05/12 01:15:58;;;;;;;25.60;21.13;;;16.00;94.70;;;;;;2057099;28;20034;-71
2021/05/12 01:16:59;;;;;;;28.90;22.33;;;16.00;94.80;;;;;;2056914;28;20093;-73
2021/05/12 01:18:10;;;;;;;31.00;24.23;;;16.00;94.60;;;;;;2057152;28;20030;-73
2021/05/12 01:19:11;;;;;;;32.75;25.15;;;16.00;94.30;;;;;;2057021;28;20114;-71
2021/05/12 01:20:14;;;;;;;28.33;23.55;;;15.90;94.70;;;;;;2048294;29;20520;-72
2021/05/12 01:21:15;;;;;;;29.95;24.58;;;15.90;94.80;;;;;;2040791;29;20032;-70
2021/05/12 01:22:16;;;;;;;28.65;22.95;;;16.00;94.90;;;;;;2048307;28;20397;-72
2021/05/12 01:23:19;;;;;;;32.28;25.75;;;16.00;94.90;;;;;;2056881;28;20035;-73
2021/05/12 01:24:20;;;;;;;30.73;24.55;;;16.00;94.60;;;;;;2056216;28;20019;-73
2021/05/12 01:25:21;;;;;;;34.03;25.70;;;16.00;94.70;;;;;;2056902;28;20042;-71
2021/05/12 01:26:23;;;;;;;36.13;25.40;;;16.00;94.70;;;;;;2056247;28;20121;-73
2021/05/12 01:27:24;;;;;;;35.40;26.90;;;16.00;94.80;;;;;;2056060;28;20525;-72
2021/05/12 01:28:29;;;;;;;31.65;25.17;;;16.00;94.70;;;;;;2048377;29;20034;-73
2021/05/12 01:29:30;;;;;;;33.60;26.35;;;16.00;94.90;;;;;;2056922;28;20022;-72
2021/05/12 01:30:30;;;;;;;38.30;27.67;;;16.00;94.80;;;;;;2056850;28;20027;-72
2021/05/12 01:31:33;;;;;;;38.85;28.70;;;16.00;94.80;;;;;;2056978;28;20026;-71
2021/05/12 01:32:36;;;;;;;37.00;27.65;;;15.90;94.20;;;;;;2056813;28;20051;-73
2021/05/12 01:33:38;;;;;;;35.53;27.80;;;15.90;94.70;;;;;;2056836;28;20031;-74
2021/05/12 01:34:38;;;;;;;35.65;27.83;;;15.80;94.80;;;;;;2055271;28;20039;-73
2021/05/12 01:35:39;;;;;;;33.65;25.17;;;15.80;94.90;;;;;;2056244;28;20034;-72
2021/05/12 01:36:41;;;;;;;39.80;29.77;;;15.90;95.10;;;;;;2056803;28;20362;-73
2021/05/12 01:37:41;;;;;;;37.47;28.30;;;15.90;94.60;;;;;;2056754;28;20429;-71
2021/05/12 01:38:44;;;;;;;36.92;28.55;;;15.80;94.70;;;;;;2056067;28;20105;-73
2021/05/12 01:39:45;;;;;;;39.72;30.15;;;15.90;94.80;;;;;;2056254;28;20042;-72
2021/05/12 01:40:48;;;;;;;42.10;30.05;;;15.80;94.60;;;;;;2056665;28;20023;-72
2021/05/12 01:41:48;;;;;;;43.90;30.85;;;15.80;94.50;;;;;;2056781;28;20465;-72
2021/05/12 01:42:49;;;;;;;39.15;28.40;;;15.70;94.80;;;;;;2056175;28;20106;-71
2021/05/12 01:43:50;;;;;;;40.95;30.20;;;15.70;94.90;;;;;;2056312;28;20442;-70
2021/05/12 01:44:51;;;;;;;38.83;29.48;;;15.70;94.80;;;;;;2055633;28;20026;-71
2021/05/12 01:45:52;;;;;;;38.25;29.10;;;15.80;95.00;;;;;;2056625;28;20035;-70
2021/05/12 01:46:52;;;;;;;41.95;30.52;;;15.80;95.00;;;;;;2056579;28;20038;-71
2021/05/12 01:47:53;;;;;;;40.80;29.85;;;15.80;94.90;;;;;;2056622;28;20034;-71
2021/05/12 01:48:54;;;;;;;40.85;30.08;;;15.70;95.40;;;;;;2056555;28;20034;-70
2021/05/12 01:49:59;;;;;;;43.95;30.02;;;15.80;95.10;;;;;;2056652;28;20041;-72
2021/05/12 01:51:00;;;;;;;45.40;31.10;;;15.70;95.40;;;;;;2056640;28;20035;-71
2021/05/12 01:52:00;;;;;;;43.10;31.33;;;15.70;95.30;;;;;;2056550;28;20070;-71
2021/05/12 01:53:01;;;;;;;43.45;29.67;;;15.70;95.10;;;;;;2056635;28;20068;-71
2021/05/12 01:54:04;;;;;;;39.53;29.48;;;15.70;95.20;;;;;;2056384;28;20092;-69
2021/05/12 01:55:07;;;;;;;43.47;30.60;;;15.70;95.10;;;;;;2056301;28;20027;-72
2021/05/12 01:56:09;;;;;;;36.08;27.10;;;15.70;95.20;;;;;;2055699;28;20088;-71
2021/05/12 01:57:11;;;;;;;36.65;26.63;;;15.80;95.20;;;;;;2056462;28;20034;-71
2021/05/12 01:58:11;;;;;;;37.90;26.77;;;15.80;95.20;;;;;;2056966;28;20027;-71
2021/05/12 01:59:12;;;;;;;35.80;27.83;;;15.80;95.20;;;;;;2057700;28;20034;-69
2021/05/12 02:00:19;;;;;;;43.70;30.05;;;15.90;94.90;;;;;;2058932;28;20073;-70
2021/05/12 02:01:20;;;;;;;36.88;27.15;;;15.90;95.20;;;;;;2059034;28;20122;-72
2021/05/12 02:02:21;;;;;;;40.53;29.10;;;15.90;95.10;;;;;;2058248;28;20038;-72
2021/05/12 02:03:22;;;;;;;39.10;27.85;;;15.90;94.70;;;;;;2057934;28;20045;-72
2021/05/12 02:04:22;;;;;;;40.53;30.63;;;15.80;94.60;;;;;;2056516;28;20421;-70
2021/05/12 02:05:24;;;;;;;39.03;28.85;;;15.80;94.80;;;;;;2056565;28;20035;-72
2021/05/12 02:06:25;;;;;;;42.03;29.63;;;15.80;94.80;;;;;;2056588;28;20109;-71
2021/05/12 02:07:25;;;;;;;39.50;28.60;;;15.80;94.80;;;;;;2056401;28;20041;-72
2021/05/12 02:08:30;;;;;;;38.83;29.40;;;15.80;95.00;;;;;;2055708;28;20035;-71
2021/05/12 02:09:38;;;;;;;40.38;28.58;;;15.70;94.70;;;;;;2055811;28;20598;-70
2021/05/12 02:10:42;;;;;;;37.55;28.55;;;15.70;95.00;;;;;;2055954;28;20029;-71
2021/05/12 02:11:42;;;;;;;42.45;29.08;;;15.70;94.90;;;;;;2055855;28;20113;-71
2021/05/12 02:12:43;;;;;;;35.33;27.10;;;15.70;95.10;;;;;;2055863;28;20084;-71
2021/05/12 02:13:44;;;;;;;32.03;24.48;;;15.70;95.30;;;;;;2047778;28;20062;-72
2021/05/12 02:14:44;;;;;;;32.30;25.45;;;15.70;95.20;;;;;;2047678;28;20067;-71
2021/05/12 02:15:46;;;;;;;36.88;26.85;;;15.70;95.00;;;;;;2056535;28;20545;-71
2021/05/12 02:16:46;;;;;;;40.70;29.05;;;15.80;95.10;;;;;;2056202;28;20684;-72
2021/05/12 02:17:47;;;;;;;40.78;28.95;;;15.80;94.70;;;;;;2056391;28;20031;-74
2021/05/12 02:18:48;;;;;;;37.40;27.38;;;15.70;94.60;;;;;;2056402;28;20436;-72
2021/05/12 02:19:48;;;;;;;39.80;27.10;;;15.70;94.80;;;;;;2056425;28;20090;-71
2021/05/12 02:20:49;;;;;;;40.80;28.25;;;15.70;94.60;;;;;;2056350;28;20079;-71
2021/05/12 02:21:50;;;;;;;34.47;27.30;;;15.70;94.50;;;;;;2056356;28;20030;-72
2021/05/12 02:22:51;;;;;;;38.15;28.63;;;15.70;94.70;;;;;;2056348;28;20023;-75
2021/05/12 02:23:51;;;;;;;34.58;26.00;;;15.70;94.90;;;;;;2056318;28;20034;-72
2021/05/12 02:24:52;;;;;;;36.75;27.23;;;15.70;94.80;;;;;;2062850;28;20030;-71
2021/05/12 02:25:53;;;;;;;37.83;28.17;;;15.70;94.80;;;;;;2063824;28;20458;-72
2021/05/12 02:26:53;;;;;;;38.38;28.10;;;15.70;94.90;;;;;;2056387;28;20472;-70
2021/05/12 02:27:54;;;;;;;42.10;29.05;;;15.70;94.80;;;;;;2056402;28;20031;-71
2021/05/12 02:28:57;;;;;;;38.60;27.23;;;15.70;94.80;;;;;;2047817;29;20470;-71
2021/05/12 02:30:01;;;;;;;35.08;26.65;;;15.70;94.80;;;;;;2048066;28;20034;-71
2021/05/12 02:31:01;;;;;;;39.33;26.17;;;15.70;94.70;;;;;;2056293;28;20023;-71
2021/05/12 02:32:02;;;;;;;37.80;27.70;;;15.70;94.60;;;;;;2056284;28;20027;-72
2021/05/12 02:33:05;;;;;;;39.97;28.27;;;15.70;94.40;;;;;;2056398;28;20038;-72
2021/05/12 02:34:05;;;;;;;37.03;27.13;;;15.70;94.40;;;;;;2055166;28;20086;-71
2021/05/12 02:35:08;;;;;;;35.83;25.63;;;15.70;94.60;;;;;;2055292;28;20113;-71
2021/05/12 02:36:09;;;;;;;35.70;27.75;;;15.70;94.80;;;;;;2055698;28;20023;-72
2021/05/12 02:37:10;;;;;;;34.30;25.80;;;15.70;94.60;;;;;;2055760;28;20034;-71
2021/05/12 02:38:11;;;;;;;38.05;26.60;;;15.80;94.50;;;;;;2056296;28;20477;-71
2021/05/12 02:39:11;;;;;;;38.17;29.08;;;15.70;94.60;;;;;;2056356;28;20134;-72
2021/05/12 02:40:14;;;;;;;36.10;28.45;;;15.70;94.20;;;;;;2056302;28;20035;-72
2021/05/12 02:41:15;;;;;;;38.88;28.30;;;15.70;94.30;;;;;;2055727;28;20035;-72
2021/05/12 02:42:16;;;;;;;39.38;28.80;;;15.70;94.40;;;;;;2055724;28;20031;-70
2021/05/12 02:43:17;;;;;;;37.40;28.55;;;15.70;94.40;;;;;;2055579;28;20023;-71
2021/05/12 02:44:17;;;;;;;39.72;29.13;;;15.70;94.60;;;;;;2054942;28;20101;-72
2021/05/12 02:45:19;;;;;;;37.13;29.40;;;15.70;94.50;;;;;;2056113;28;20076;-70
2021/05/12 02:46:19;;;;;;;39.05;28.60;;;15.70;94.40;;;;;;2056191;28;20433;-72
2021/05/12 02:47:20;;;;;;;35.15;27.83;;;15.70;94.50;;;;;;2056188;28;20114;-72
2021/05/12 02:48:20;;;;;;;33.63;24.70;;;15.70;94.60;;;;;;2056098;28;20062;-71
2021/05/12 02:49:21;;;;;;;31.23;25.25;;;15.70;94.60;;;;;;2056256;28;20034;-72
2021/05/12 02:50:22;;;;;;;34.50;25.90;;;15.70;94.60;;;;;;2056134;28;20420;-73
2021/05/12 02:51:22;;;;;;;40.42;29.50;;;15.70;94.80;;;;;;2056236;28;20034;-71
2021/05/12 02:52:23;;;;;;;36.65;27.73;;;15.70;94.40;;;;;;2056106;28;20422;-72
2021/05/12 02:53:24;;;;;;;36.90;27.70;;;15.70;94.30;;;;;;2056084;28;20050;-72
2021/05/12 02:54:24;;;;;;;33.35;26.17;;;15.70;94.00;;;;;;2055218;28;20105;-71
2021/05/12 02:55:26;;;;;;;37.88;28.55;;;15.70;94.40;;;;;;2055997;28;20835;-72
2021/05/12 02:56:27;;;;;;;40.30;29.90;;;15.70;94.30;;;;;;2056080;28;20136;-72
2021/05/12 02:57:27;;;;;;;43.55;31.52;;;15.70;94.20;;;;;;2056288;28;20027;-72
2021/05/12 02:58:28;;;;;;;43.85;30.98;;;15.60;94.20;;;;;;2056087;28;20030;-72
2021/05/12 02:59:29;;;;;;;41.53;30.08;;;15.60;94.50;;;;;;2056229;28;20034;-70
2021/05/12 03:00:30;;;;;;;37.30;30.38;;;15.60;94.60;;;;;;2056151;28;20110;-72
2021/05/12 03:01:30;;;;;;;39.55;30.75;;;15.60;94.70;;;;;;2056186;28;20368;-72
2021/05/12 03:02:31;;;;;;;38.10;28.95;;;15.60;94.60;;;;;;2056168;28;20027;-71
2021/05/12 03:03:31;;;;;;;40.08;30.15;;;15.60;94.60;;;;;;2056251;28;20026;-71
2021/05/12 03:04:32;;;;;;;37.35;29.20;;;15.60;94.60;;;;;;2054553;28;20434;-71
2021/05/12 03:05:33;;;;;;;33.80;26.95;;;15.60;94.40;;;;;;2055534;28;20533;-70
2021/05/12 03:06:34;;;;;;;41.97;29.98;;;15.60;94.40;;;;;;2055826;28;20043;-71
2021/05/12 03:07:35;;;;;;;41.38;31.65;;;15.60;94.50;;;;;;2056135;28;20023;-73
2021/05/12 03:08:36;;;;;;;42.45;29.60;;;15.60;94.30;;;;;;2057824;28;20058;-71
2021/05/12 03:09:36;;;;;;;36.58;28.35;;;15.60;94.50;;;;;;2057826;28;20042;-72
2021/05/12 03:10:38;;;;;;;36.58;29.02;;;15.70;94.60;;;;;;2057672;28;20394;-71
2021/05/12 03:11:39;;;;;;;33.45;28.08;;;15.60;94.90;;;;;;2057705;28;21035;-71
2021/05/12 03:12:40;;;;;;;33.03;26.92;;;15.70;94.50;;;;;;2057642;28;20089;-71
2021/05/12 03:13:41;;;;;;;33.22;26.67;;;15.60;94.30;;;;;;2057683;28;20088;-71
2021/05/12 03:14:41;;;;;;;36.40;29.10;;;15.70;94.40;;;;;;2056583;28;20838;-74
2021/05/12 03:15:42;;;;;;;34.80;27.83;;;15.70;94.40;;;;;;2057630;28;20039;-71
2021/05/12 03:16:43;;;;;;;37.75;30.55;;;15.70;94.50;;;;;;2057499;28;20097;-73
2021/05/12 03:17:43;;;;;;;36.42;27.60;;;15.70;94.30;;;;;;2057664;28;20030;-72
2021/05/12 03:18:44;;;;;;;38.65;30.27;;;15.70;94.30;;;;;;2057596;28;20038;-72
2021/05/12 03:19:45;;;;;;;35.58;28.75;;;15.70;94.20;;;;;;2057937;28;20023;-73
2021/05/12 03:20:45;;;;;;;34.42;26.73;;;15.70;94.30;;;;;;2057784;28;20035;-73
2021/05/12 03:21:46;;;;;;;34.50;27.70;;;15.70;94.40;;;;;;2057780;28;20019;-72
2021/05/12 03:22:47;;;;;;;38.67;29.45;;;15.70;94.20;;;;;;2057717;28;20062;-71
2021/05/12 03:23:49;;;;;;;33.83;27.70;;;15.70;93.90;;;;;;2057593;28;20042;-72
2021/05/12 03:24:49;;;;;;;33.17;26.63;;;15.70;94.10;;;;;;2056883;28;20110;-72
2021/05/12 03:25:50;;;;;;;29.45;24.00;;;15.70;94.20;;;;;;2057760;28;20035;-71
2021/05/12 03:26:52;;;;;;;35.38;28.08;;;15.70;94.20;;;;;;2057835;28;20030;-72
2021/05/12 03:27:53;;;;;;;34.88;28.70;;;15.70;94.20;;;;;;2057761;28;20031;-71
2021/05/12 03:28:54;;;;;;;37.10;28.00;;;15.70;94.10;;;;;;2057019;28;20026;-72
2021/05/12 03:29:55;;;;;;;32.42;26.02;;;15.70;94.10;;;;;;2057099;28;20482;-72
2021/05/12 03:30:56;;;;;;;30.67;25.40;;;15.70;94.20;;;;;;2057179;28;20127;-72
2021/05/12 03:31:56;;;;;;;30.42;24.90;;;15.70;94.20;;;;;;2057211;28;20038;-72
2021/05/12 03:32:57;;;;;;;33.72;26.92;;;15.70;94.30;;;;;;2057921;28;20049;-72
2021/05/12 03:33:58;;;;;;;38.55;29.33;;;15.80;94.10;;;;;;2057755;28;20045;-70
2021/05/12 03:34:58;;;;;;;29.95;25.27;;;15.70;93.80;;;;;;2057030;28;20031;-71
2021/05/12 03:35:59;;;;;;;40.05;30.42;;;15.70;94.00;;;;;;2058367;28;20553;-71
2021/05/12 03:37:00;;;;;;;33.20;27.02;;;15.70;93.80;;;;;;2057247;28;20027;-72
2021/05/12 03:38:01;;;;;;;30.38;25.63;;;15.70;94.00;;;;;;2057492;28;20081;-70
2021/05/12 03:39:04;;;;;;;32.72;26.38;;;15.70;94.10;;;;;;2056078;28;20053;-70
2021/05/12 03:40:07;;;;;;;27.92;23.80;;;15.70;94.10;;;;;;2065237;28;20030;-71
2021/05/12 03:41:08;;;;;;;27.92;22.48;;;15.70;94.30;;;;;;2066105;28;20046;-70
2021/05/12 03:42:08;;;;;;;27.90;23.73;;;15.70;94.20;;;;;;2066519;28;20038;-70
2021/05/12 03:43:10;;;;;;;27.73;22.70;;;15.70;94.20;;;;;;2063900;28;20026;-71
2021/05/12 03:44:11;;;;;;;31.13;24.75;;;15.80;94.20;;;;;;2059924;28;20062;-71
2021/05/12 03:45:12;;;;;;;35.72;26.65;;;15.80;94.10;;;;;;2057611;28;20537;-72
2021/05/12 03:46:13;;;;;;;32.88;26.10;;;15.80;93.80;;;;;;2057637;28;20038;-70
2021/05/12 03:47:13;;;;;;;36.78;26.92;;;15.80;93.50;;;;;;2057950;28;20106;-72
2021/05/12 03:48:14;;;;;;;28.27;23.08;;;15.80;93.60;;;;;;2057674;28;20031;-73
2021/05/12 03:49:15;;;;;;;31.38;24.73;;;15.70;93.70;;;;;;2057027;28;20035;-71
2021/05/12 03:50:17;;;;;;;31.30;24.98;;;15.80;93.80;;;;;;2056926;28;20089;-69
2021/05/12 03:51:18;;;;;;;26.90;22.58;;;15.80;93.70;;;;;;2057642;28;20030;-69
2021/05/12 03:52:18;;;;;;;27.35;22.27;;;15.80;93.70;;;;;;2057608;28;20035;-69
2021/05/12 03:53:19;;;;;;;25.70;21.33;;;15.80;93.70;;;;;;2057563;28;20390;-70
2021/05/12 03:54:22;;;;;;;29.92;23.00;;;15.80;93.60;;;;;;2056728;28;20046;-69
2021/05/12 03:55:23;;;;;;;30.75;23.92;;;15.80;93.60;;;;;;2057431;28;20031;-70
2021/05/12 03:56:24;;;;;;;31.50;23.70;;;15.80;93.20;;;;;;2057503;28;20070;-70
2021/05/12 03:57:25;;;;;;;30.98;24.48;;;15.80;93.40;;;;;;2057563;28;20413;-71
2021/05/12 03:58:26;;;;;;;35.03;25.10;;;15.80;93.20;;;;;;2057503;28;20065;-70
2021/05/12 03:59:26;;;;;;;33.33;23.60;;;15.80;93.10;;;;;;2057626;28;20030;-69
2021/05/12 04:00:27;;;;;;;30.58;24.23;;;15.70;93.00;;;;;;2057553;28;20022;-69
2021/05/12 04:01:28;;;;;;;30.58;23.10;;;15.70;93.10;;;;;;2057639;28;20035;-69
2021/05/12 04:02:29;;;;;;;28.73;21.67;;;15.60;93.00;;;;;;2057694;28;20031;-70
2021/05/12 04:03:29;;;;;;;29.88;21.40;;;15.60;93.20;;;;;;2057684;28;20479;-70
2021/05/12 04:04:30;;;;;;;29.90;22.73;;;15.70;93.30;;;;;;2056596;28;20430;-70
2021/05/12 04:05:30;;;;;;;25.15;21.25;;;15.70;93.40;;;;;;2057614;28;20022;-69
2021/05/12 04:06:31;;;;;;;26.23;21.17;;;15.70;93.50;;;;;;2057452;28;20033;-71
2021/05/12 04:07:32;;;;;;;29.10;21.67;;;15.70;93.40;;;;;;2056903;28;20050;-69
2021/05/12 04:08:32;;;;;;;28.45;22.33;;;15.70;93.30;;;;;;2056913;28;20065;-70
2021/05/12 04:09:33;;;;;;;29.90;22.92;;;15.70;93.30;;;;;;2057697;28;20118;-71
2021/05/12 04:10:34;;;;;;;27.73;21.52;;;15.70;93.20;;;;;;2057558;28;20089;-70
2021/05/12 04:11:38;;;;;;;28.25;21.70;;;15.70;93.10;;;;;;2057460;28;20035;-70
2021/05/12 04:12:39;;;;;;;27.20;20.13;;;15.70;93.40;;;;;;2057467;28;20066;-70
2021/05/12 04:13:40;;;;;;;30.20;22.00;;;15.70;93.40;;;;;;2057539;28;20034;-70
2021/05/12 04:14:40;;;;;;;29.85;22.75;;;15.70;93.50;;;;;;2056420;28;20069;-69
2021/05/12 04:15:41;;;;;;;27.15;22.08;;;15.70;93.90;;;;;;2057209;28;20042;-70
2021/05/12 04:16:41;;;;;;;25.70;20.42;;;15.70;93.30;;;;;;2057544;28;20030;-71
2021/05/12 04:17:42;;;;;;;27.25;21.50;;;15.70;93.40;;;;;;2057390;28;20027;-70
2021/05/12 04:18:42;;;;;;;29.23;22.42;;;15.70;93.60;;;;;;2057349;28;20114;-69
2021/05/12 04:19:43;;;;;;;32.00;22.25;;;15.60;93.30;;;;;;2055859;28;20485;-70
2021/05/12 04:20:44;;;;;;;29.20;21.80;;;15.60;93.60;;;;;;2056605;28;20027;-70
2021/05/12 04:21:45;;;;;;;29.88;22.27;;;15.60;93.40;;;;;;2048698;29;20126;-68
2021/05/12 04:22:46;;;;;;;27.85;21.23;;;15.60;93.70;;;;;;2048683;29;20076;-69
2021/05/12 04:23:47;;;;;;;30.95;22.30;;;15.60;94.20;;;;;;2057318;28;20033;-70
2021/05/12 04:24:47;;;;;;;28.88;21.52;;;15.50;93.70;;;;;;2056813;28;20041;-70
2021/05/12 04:25:48;;;;;;;27.65;21.27;;;15.60;93.90;;;;;;2057583;28;20049;-71
2021/05/12 04:26:48;;;;;;;30.63;22.10;;;15.50;93.90;;;;;;2057345;28;20062;-69
2021/05/12 04:27:50;;;;;;;30.75;22.35;;;15.60;93.80;;;;;;2057459;28;20030;-70
2021/05/12 04:28:51;;;;;;;27.38;20.40;;;15.60;93.90;;;;;;2056854;28;20041;-70
2021/05/12 04:29:51;;;;;;;27.75;21.00;;;15.60;93.90;;;;;;2056838;28;20035;-70
2021/05/12 04:30:52;;;;;;;27.33;20.00;;;15.60;93.80;;;;;;2057664;28;20097;-69
2021/05/12 04:31:52;;;;;;;27.30;20.73;;;15.70;93.80;;;;;;2057492;28;20034;-70
2021/05/12 04:32:55;;;;;;;27.95;20.55;;;15.70;93.60;;;;;;2057020;28;20093;-70
2021/05/12 04:33:56;;;;;;;25.30;18.15;;;15.60;93.30;;;;;;2056888;28;20490;-70
2021/05/12 04:34:56;;;;;;;29.40;20.83;;;15.70;93.50;;;;;;2048917;28;20031;-70
2021/05/12 04:35:57;;;;;;;27.05;20.15;;;15.70;93.20;;;;;;2058047;28;20034;-69
2021/05/12 04:36:57;;;;;;;25.83;19.35;;;15.60;93.10;;;;;;2057772;28;20461;-69
2021/05/12 04:37:58;;;;;;;23.95;18.85;;;15.60;93.20;;;;;;2057213;28;20027;-69
2021/05/12 04:38:59;;;;;;;26.38;19.88;;;15.60;93.50;;;;;;2057036;28;20031;-70
2021/05/12 04:40:00;;;;;;;28.58;19.75;;;15.60;93.30;;;;;;2057215;28;20061;-69
2021/05/12 04:41:00;;;;;;;26.77;19.85;;;15.60;93.20;;;;;;2056923;28;20040;-70
2021/05/12 04:42:01;;;;;;;26.45;19.20;;;15.60;93.30;;;;;;2057383;28;20065;-70
2021/05/12 04:43:02;;;;;;;28.05;20.13;;;15.60;93.60;;;;;;2057102;28;20031;-70
2021/05/12 04:44:03;;;;;;;27.95;19.27;;;15.60;93.50;;;;;;2056479;28;20053;-70
2021/05/12 04:45:06;;;;;;;22.25;17.02;;;15.60;93.50;;;;;;2055485;28;20034;-69
2021/05/12 04:46:07;;;;;;;28.15;18.40;;;15.70;93.60;;;;;;2056272;28;20023;-69
2021/05/12 04:47:07;;;;;;;26.95;18.85;;;15.70;93.50;;;;;;2056356;28;20031;-70
2021/05/12 04:48:08;;;;;;;23.65;18.52;;;15.70;93.20;;;;;;2056765;28;20027;-69
2021/05/12 04:49:09;;;;;;;22.80;17.63;;;15.70;92.90;;;;;;2056504;28;20053;-70
2021/05/12 04:50:10;;;;;;;25.65;18.65;;;15.70;93.20;;;;;;2057130;28;20043;-69
2021/05/12 04:51:11;;;;;;;27.15;18.75;;;15.70;93.20;;;;;;2056886;28;20022;-71
2021/05/12 04:52:12;;;;;;;25.05;18.80;;;15.70;93.00;;;;;;2057225;28;20027;-69
2021/05/12 04:53:13;;;;;;;24.02;17.30;;;15.60;93.10;;;;;;2056958;28;20479;-71
2021/05/12 04:54:14;;;;;;;27.38;18.42;;;15.60;93.30;;;;;;2056372;28;20123;-68
2021/05/12 04:55:14;;;;;;;26.52;18.27;;;15.60;93.20;;;;;;2056817;28;20018;-69
2021/05/12 04:56:16;;;;;;;21.77;17.33;;;15.60;93.20;;;;;;2057016;28;20101;-70
2021/05/12 04:57:17;;;;;;;25.98;18.08;;;15.60;93.00;;;;;;2056913;28;20490;-69
2021/05/12 04:58:19;;;;;;;26.77;18.30;;;15.50;93.20;;;;;;2056950;28;20031;-69
2021/05/12 04:59:20;;;;;;;25.77;18.50;;;15.50;93.30;;;;;;2056760;28;20480;-69
2021/05/12 05:00:22;;;;;;;25.20;18.25;;;15.50;93.90;;;;;;2056996;28;20035;-69
2021/05/12 05:01:22;;;;;;;27.42;18.65;;;15.60;93.60;;;;;;2056913;28;20054;-69
2021/05/12 05:02:23;;;;;;;23.42;17.02;;;15.50;93.80;;;;;;2056949;28;20157;-69
2021/05/12 05:03:23;;;;;;;22.08;16.08;;;15.60;93.60;;;;;;2056327;28;20035;-69
2021/05/12 05:04:24;;;;;;;25.70;16.98;;;15.60;93.70;;;;;;2047626;28;20027;-69
2021/05/12 05:05:27;;;;;;;24.10;17.52;;;15.70;93.40;;;;;;2048495;29;20039;-69
2021/05/12 05:06:27;;;;;;;27.25;17.35;;;15.70;93.30;;;;;;2056888;28;20077;-70
2021/05/12 05:07:28;;;;;;;22.95;15.93;;;15.70;93.10;;;;;;2057050;28;20490;-71
2021/05/12 05:08:29;;;;;;;24.67;17.25;;;15.70;93.40;;;;;;2056468;28;20038;-70
2021/05/12 05:09:29;;;;;;;22.92;16.85;;;15.70;93.00;;;;;;2056422;28;20062;-69
2021/05/12 05:10:31;;;;;;;23.70;16.67;;;15.70;93.00;;;;;;2056424;28;20050;-70
2021/05/12 05:11:31;;;;;;;23.60;16.50;;;15.70;93.10;;;;;;2056272;28;20023;-70